Time;durP1;ratioP1;P1;durP2;ratioP2;P2;SDS_P1;SDS_P2;PMS_P1;PMS_P2;Temp;Humidity;BMP_temperature;BMP_pressure;BME280_temperature;BME280_humidity;BME280_pressure;Samples;Min_cycle;Max_cycle;Signal;HPM_P1;HPM_P2
2022/09/04 00:01:24;;;;;;;6.20;2.22;;;17.80;99.90;;;;;;5026015;28;20526;-68
2022/09/04 00:03:53;;;;;;;2.22;2.03;;;17.80;99.90;;;;;;5034840;28;20055;-68
2022/09/04 00:06:25;;;;;;;2.70;2.27;;;17.80;99.90;;;;;;5033178;28;20029;-68
2022/09/04 00:09:15;;;;;;;2.20;2.00;;;17.80;99.90;;;;;;5034220;28;20649;-68
2022/09/04 00:11:56;;;;;;;1.85;1.75;;;17.80;99.90;;;;;;5037736;28;20029;-68
2022/09/04 00:14:21;;;;;;;1.83;1.73;;;17.80;99.90;;;;;;5038919;28;20090;-68
2022/09/04 00:17:00;;;;;;;2.50;2.28;;;17.70;99.90;;;;;;5035032;28;20112;-68
2022/09/04 00:19:34;;;;;;;;;;;17.70;99.90;;;;;;5037307;28;20100;-68
2022/09/04 00:22:04;;;;;;;3.25;1.75;;;17.70;99.90;;;;;;5037153;28;19916;-68
2022/09/04 00:24:43;;;;;;;2.13;1.90;;;17.70;99.90;;;;;;5034815;28;20032;-68
2022/09/04 00:27:28;;;;;;;2.90;2.20;;;17.70;99.90;;;;;;5049804;28;20030;-68
2022/09/04 00:30:06;;;;;;;4.68;2.13;;;17.70;99.90;;;;;;5034266;28;20026;-68
2022/09/04 00:32:48;;;;;;;2.03;1.92;;;17.70;99.90;;;;;;5066188;28;20480;-68
2022/09/04 00:35:17;;;;;;;3.30;2.17;;;17.70;99.90;;;;;;5034205;28;20026;-68
2022/09/04 00:38:05;;;;;;;2.95;1.88;;;17.70;99.90;;;;;;5033972;28;20408;-68
2022/09/04 00:40:37;;;;;;;2.13;2.03;;;17.70;99.90;;;;;;5033885;28;20033;-68
2022/09/04 00:43:05;;;;;;;2.08;1.80;;;17.70;99.90;;;;;;5049366;28;20026;-68
2022/09/04 00:45:40;;;;;;;4.53;2.35;;;17.70;99.90;;;;;;5032836;28;20392;-68
2022/09/04 00:48:32;;;;;;;1.85;1.75;;;17.70;99.90;;;;;;5034110;28;20036;-68
2022/09/04 00:51:06;;;;;;;3.00;1.92;;;17.70;99.90;;;;;;5033622;28;20025;-68
2022/09/04 00:54:25;;;;;;;4.55;1.85;;;17.70;99.90;;;;;;5033801;28;20026;-68
2022/09/04 00:57:12;;;;;;;2.70;1.92;;;17.60;99.90;;;;;;5011701;28;20037;-68
2022/09/04 00:59:53;;;;;;;1.67;1.58;;;17.60;99.90;;;;;;5032418;28;20025;-68
2022/09/04 01:02:42;;;;;;;1.90;1.80;;;17.60;99.90;;;;;;5032282;28;20539;-68
2022/09/04 01:05:37;;;;;;;1.85;1.75;;;17.60;99.90;;;;;;5023140;28;20096;-68
2022/09/04 01:08:39;;;;;;;2.00;1.80;;;17.60;99.90;;;;;;5033921;28;20034;-68
2022/09/04 01:11:38;;;;;;;5.95;1.90;;;17.60;99.90;;;;;;5034065;28;20095;-68
2022/09/04 01:14:28;;;;;;;5.55;2.33;;;17.60;99.90;;;;;;5033556;28;20065;-68
2022/09/04 01:17:22;;;;;;;2.20;2.05;;;17.60;99.90;;;;;;5033630;28;20060;-68
2022/09/04 01:20:06;;;;;;;3.45;2.00;;;17.60;99.90;;;;;;5033465;28;20030;-68
2022/09/04 01:22:56;;;;;;;3.58;1.75;;;17.60;99.90;;;;;;5033483;28;20076;-68
2022/09/04 01:25:50;;;;;;;2.50;2.28;;;17.60;99.90;;;;;;5033975;28;20025;-68
2022/09/04 01:28:49;;;;;;;2.15;1.95;;;17.50;99.90;;;;;;5033681;28;20155;-68
2022/09/04 01:31:33;;;;;;;1.90;1.80;;;17.50;99.90;;;;;;5033331;28;20101;-68
2022/09/04 01:34:37;;;;;;;2.40;2.30;;;17.40;99.90;;;;;;5032872;28;20064;-68
2022/09/04 01:37:34;;;;;;;2.20;2.10;;;17.30;99.90;;;;;;5037226;28;20029;-68
2022/09/04 01:40:39;;;;;;;2.10;2.00;;;17.30;99.90;;;;;;5036921;28;20036;-68
2022/09/04 01:43:19;;;;;;;2.78;2.33;;;17.20;99.90;;;;;;5069469;28;20022;-68
2022/09/04 01:46:15;;;;;;;3.40;2.30;;;17.20;99.90;;;;;;5037061;28;20056;-68
2022/09/04 01:48:49;;;;;;;3.22;2.25;;;17.20;99.90;;;;;;5035955;28;20029;-68
2022/09/04 01:51:44;;;;;;;2.63;2.42;;;17.10;99.90;;;;;;5036831;28;20033;-68
2022/09/04 01:54:47;;;;;;;2.90;2.60;;;17.00;99.90;;;;;;5036958;28;20033;-68
2022/09/04 01:57:34;;;;;;;4.47;2.80;;;17.00;99.90;;;;;;5036891;28;20037;-67
2022/09/04 02:00:09;;;;;;;2.88;2.20;;;17.00;99.90;;;;;;5035481;28;20029;-67
2022/09/04 02:02:55;;;;;;;3.17;2.95;;;17.00;99.90;;;;;;5037074;28;20056;-68
2022/09/04 02:05:47;;;;;;;7.38;3.25;;;17.00;99.90;;;;;;5035755;28;20025;-68
2022/09/04 02:08:20;;;;;;;3.72;2.70;;;17.00;99.90;;;;;;5036651;28;20080;-67
2022/09/04 02:11:04;;;;;;;2.75;2.55;;;17.00;99.90;;;;;;5036691;28;20032;-68
2022/09/04 02:14:05;;;;;;;4.47;2.40;;;16.90;99.90;;;;;;5035191;28;20477;-68
2022/09/04 02:16:46;;;;;;;2.83;2.63;;;16.90;99.90;;;;;;5035210;28;20029;-68
2022/09/04 02:19:23;;;;;;;5.30;2.95;;;16.90;99.90;;;;;;5036447;28;20033;-68
2022/09/04 02:22:03;;;;;;;3.00;2.80;;;16.80;99.90;;;;;;5036891;28;20462;-68
2022/09/04 02:24:40;;;;;;;4.38;2.92;;;16.80;99.90;;;;;;5036807;28;20029;-68
2022/09/04 02:27:19;;;;;;;3.00;2.45;;;16.80;99.90;;;;;;5036429;28;20032;-68
2022/09/04 02:29:54;;;;;;;3.03;2.83;;;16.80;99.90;;;;;;5036175;28;20026;-68
2022/09/04 02:32:27;;;;;;;2.85;2.60;;;16.80;99.90;;;;;;5036278;28;20036;-68
2022/09/04 02:35:14;;;;;;;5.25;2.97;;;16.80;99.90;;;;;;5035891;28;20033;-68
2022/09/04 02:37:39;;;;;;;4.13;3.08;;;16.80;99.90;;;;;;5051520;28;20033;-68
2022/09/04 02:40:42;;;;;;;3.33;3.03;;;16.80;99.90;;;;;;5036081;28;20025;-68
2022/09/04 02:43:11;;;;;;;3.47;3.15;;;16.70;99.90;;;;;;5036076;28;20036;-68
2022/09/04 02:45:46;;;;;;;3.90;3.60;;;16.70;99.90;;;;;;5036163;28;20025;-68
2022/09/04 02:48:36;;;;;;;5.65;3.70;;;16.70;99.90;;;;;;5034704;28;20026;-68
2022/09/04 02:51:24;;;;;;;5.00;3.05;;;16.70;99.90;;;;;;5051556;28;20032;-68
2022/09/04 02:54:20;;;;;;;3.95;3.40;;;16.70;99.90;;;;;;5034604;28;20037;-68
2022/09/04 02:57:23;;;;;;;5.15;3.47;;;16.70;99.90;;;;;;5027319;28;20033;-67
2022/09/04 02:59:57;;;;;;;4.18;3.65;;;16.60;99.90;;;;;;5050317;28;20048;-67
2022/09/04 03:02:28;;;;;;;3.10;2.90;;;16.60;99.90;;;;;;5035391;28;20381;-67
2022/09/04 03:05:19;;;;;;;4.80;3.38;;;16.60;99.90;;;;;;5035786;28;20060;-67
2022/09/04 03:07:53;;;;;;;3.90;3.50;;;16.60;99.90;;;;;;5035408;28;20030;-68
2022/09/04 03:10:27;;;;;;;4.50;3.97;;;16.60;99.90;;;;;;5035674;28;20087;-67
2022/09/04 03:13:05;;;;;;;3.97;3.65;;;16.60;99.90;;;;;;5051229;28;20128;-68
2022/09/04 03:15:37;;;;;;;3.47;3.17;;;16.60;99.90;;;;;;5034206;28;20025;-67
2022/09/04 03:18:37;;;;;;;5.22;4.72;;;16.50;99.90;;;;;;5035431;28;20022;-67
2022/09/04 03:21:19;;;;;;;4.57;3.28;;;16.50;99.90;;;;;;5016386;28;20041;-68
2022/09/04 03:23:50;;;;;;;3.83;3.55;;;16.50;99.90;;;;;;5050768;28;20032;-67
2022/09/04 03:26:28;;;;;;;4.00;3.20;;;16.50;99.90;;;;;;5050505;28;20026;-68
2022/09/04 03:28:59;;;;;;;3.60;3.33;;;16.50;99.90;;;;;;5035298;28;20480;-67
2022/09/04 03:31:36;;;;;;;4.13;3.72;;;16.50;99.90;;;;;;5034971;28;20034;-68
2022/09/04 03:34:38;;;;;;;5.30;3.78;;;16.40;99.90;;;;;;5033787;28;20030;-68
2022/09/04 03:37:37;;;;;;;3.90;3.60;;;16.40;99.90;;;;;;5035135;28;20358;-68
2022/09/04 03:40:08;;;;;;;4.18;3.40;;;16.40;99.90;;;;;;5033665;28;20117;-68
2022/09/04 03:42:46;;;;;;;4.57;3.72;;;16.40;99.90;;;;;;5034807;28;20108;-68
2022/09/04 03:45:22;;;;;;;3.65;3.35;;;16.40;99.90;;;;;;5033553;28;20025;-68
2022/09/04 03:47:51;;;;;;;3.80;3.42;;;16.30;99.90;;;;;;5035052;28;20030;-67
2022/09/04 03:50:23;;;;;;;4.47;4.07;;;16.30;99.90;;;;;;5034469;28;20477;-67
2022/09/04 03:53:11;;;;;;;4.25;3.65;;;16.30;99.90;;;;;;5034628;28;20436;-68
2022/09/04 03:55:36;;;;;;;4.07;3.65;;;16.30;99.90;;;;;;5034608;28;20029;-68
2022/09/04 03:58:19;;;;;;;3.30;3.08;;;16.30;99.90;;;;;;5034141;28;20029;-67
2022/09/04 04:01:12;;;;;;;4.40;3.83;;;16.30;99.90;;;;;;5033673;28;20036;-67
2022/09/04 04:03:54;;;;;;;3.80;3.50;;;16.30;99.90;;;;;;5034611;28;20064;-67
2022/09/04 04:06:22;;;;;;;4.60;3.72;;;16.30;99.90;;;;;;5034515;28;20100;-67
2022/09/04 04:09:12;;;;;;;4.40;4.03;;;16.30;99.90;;;;;;5034422;28;20032;-67
2022/09/04 04:11:59;;;;;;;4.63;3.63;;;16.30;99.90;;;;;;5034343;28;20029;-67
2022/09/04 04:14:36;;;;;;;4.07;3.70;;;16.30;99.90;;;;;;5034343;28;20040;-67
2022/09/04 04:17:31;;;;;;;3.90;3.60;;;16.20;99.90;;;;;;5034253;28;20125;-67
2022/09/04 04:20:20;;;;;;;3.97;3.40;;;16.20;99.90;;;;;;5032924;28;20172;-67
2022/09/04 04:23:16;;;;;;;4.53;3.58;;;16.20;99.90;;;;;;5032959;28;20034;-67
2022/09/04 04:26:09;;;;;;;4.97;4.07;;;16.20;99.90;;;;;;5034164;28;20420;-67
2022/09/04 04:29:01;;;;;;;4.10;3.75;;;16.20;99.90;;;;;;5034395;28;20025;-67
2022/09/04 04:31:26;;;;;;;5.38;4.28;;;16.20;99.90;;;;;;5033983;28;20053;-67
2022/09/04 04:34:14;;;;;;;4.05;3.60;;;16.20;99.90;;;;;;5033082;28;20071;-67
2022/09/04 04:37:06;;;;;;;4.18;3.75;;;16.20;99.90;;;;;;5030547;28;20512;-67
2022/09/04 04:39:51;;;;;;;3.95;3.65;;;16.20;99.90;;;;;;5033146;28;20040;-67
2022/09/04 04:42:53;;;;;;;3.97;3.67;;;16.20;99.90;;;;;;5034204;28;20166;-67
2022/09/04 04:48:35;;;;;;;3.50;3.20;;;16.20;99.90;;;;;;5033626;28;20091;-66
2022/09/04 04:51:31;;;;;;;4.75;3.30;;;16.10;99.90;;;;;;5033984;28;20033;-67
2022/09/04 04:54:19;;;;;;;3.83;3.50;;;16.10;99.90;;;;;;5033903;28;20118;-66
2022/09/04 04:57:00;;;;;;;4.15;3.30;;;16.10;99.90;;;;;;5034005;28;20036;-66
2022/09/04 04:59:33;;;;;;;3.55;3.28;;;16.10;99.90;;;;;;5033784;28;20053;-67
2022/09/04 05:02:10;;;;;;;4.15;3.28;;;16.10;99.90;;;;;;5033650;28;20033;-67
2022/09/04 05:05:12;;;;;;;3.63;3.33;;;16.10;99.90;;;;;;5049105;28;20175;-67
2022/09/04 05:08:02;;;;;;;3.35;3.13;;;16.20;99.90;;;;;;5033605;28;20072;-67
2022/09/04 05:10:58;;;;;;;4.40;4.00;;;16.20;99.90;;;;;;5037357;28;20079;-67
2022/09/04 05:13:45;;;;;;;4.38;3.97;;;16.20;99.90;;;;;;5037165;28;20490;-68
2022/09/04 05:16:46;;;;;;;4.95;3.50;;;16.20;99.90;;;;;;5037638;28;20033;-67
2022/09/04 05:19:21;;;;;;;4.00;3.70;;;16.20;99.90;;;;;;5037614;28;20032;-67
2022/09/04 05:22:02;;;;;;;7.75;3.92;;;16.20;99.90;;;;;;5036298;28;20484;-67
2022/09/04 05:24:42;;;;;;;4.00;3.70;;;16.30;99.90;;;;;;5036258;28;20493;-66
2022/09/04 05:27:45;;;;;;;5.90;3.58;;;16.30;99.90;;;;;;5036809;28;20414;-66
2022/09/04 05:30:32;;;;;;;4.45;3.63;;;16.30;99.90;;;;;;5036825;28;20036;-66
2022/09/04 05:33:11;;;;;;;4.28;3.92;;;16.30;99.90;;;;;;5037173;28;20038;-66
2022/09/04 05:36:04;;;;;;;4.07;3.78;;;16.40;99.90;;;;;;5037404;28;20029;-66
2022/09/04 05:39:01;;;;;;;3.90;3.60;;;16.40;99.90;;;;;;5037352;28;20022;-66
2022/09/04 05:42:08;;;;;;;3.80;3.53;;;16.50;99.90;;;;;;5036052;28;20040;-66
2022/09/04 05:44:57;;;;;;;4.00;3.60;;;16.50;99.90;;;;;;5035858;28;20389;-66
2022/09/04 05:47:42;;;;;;;3.65;3.35;;;16.60;99.90;;;;;;5055985;28;20026;-67
2022/09/04 05:50:26;;;;;;;4.22;3.80;;;16.60;99.90;;;;;;5039334;28;20485;-64
2022/09/04 05:52:51;;;;;;;3.35;2.70;;;16.70;99.90;;;;;;5037673;28;20419;-64
2022/09/04 05:55:32;;;;;;;3.20;2.97;;;16.70;99.90;;;;;;5037478;28;20029;-64
2022/09/04 05:58:11;;;;;;;3.92;3.22;;;16.70;99.90;;;;;;5037186;28;20109;-64
2022/09/04 06:00:59;;;;;;;3.78;3.47;;;16.80;99.90;;;;;;5036672;28;20451;-64
2022/09/04 06:03:51;;;;;;;3.17;2.92;;;16.80;99.90;;;;;;5036047;28;20110;-64
2022/09/04 06:06:22;;;;;;;3.85;3.35;;;16.80;99.90;;;;;;5035582;28;20140;-63
2022/09/04 06:09:06;;;;;;;3.67;3.38;;;16.80;99.90;;;;;;5034242;28;20025;-64
2022/09/04 06:11:40;;;;;;;3.20;3.00;;;16.90;99.90;;;;;;5035382;28;20029;-64
2022/09/04 06:14:33;;;;;;;3.42;3.10;;;17.00;99.90;;;;;;5035074;28;20080;-65
2022/09/04 06:17:22;;;;;;;3.42;3.13;;;17.00;99.90;;;;;;5035372;28;20025;-64
2022/09/04 06:20:13;;;;;;;3.13;2.92;;;17.00;99.90;;;;;;5035060;28;20071;-64
2022/09/04 06:23:09;;;;;;;3.53;3.05;;;17.20;99.90;;;;;;5035344;28;20083;-61
2022/09/04 06:26:12;;;;;;;2.55;2.35;;;17.20;99.90;;;;;;5035358;28;20025;-61
2022/09/04 06:29:07;;;;;;;3.08;2.88;;;17.40;99.90;;;;;;5035379;28;20029;-61
2022/09/04 06:32:18;;;;;;;4.45;2.75;;;17.40;99.90;;;;;;5024490;28;20049;-68
2022/09/04 06:35:06;;;;;;;4.88;3.28;;;17.50;99.90;;;;;;5013323;28;20038;-69
2022/09/04 06:37:40;;;;;;;1.92;1.83;;;17.50;99.90;;;;;;5033770;28;20461;-69
2022/09/04 06:40:18;;;;;;;2.30;2.13;;;17.60;99.90;;;;;;5035154;28;20025;-69
2022/09/04 06:43:26;;;;;;;2.47;2.27;;;17.60;99.90;;;;;;5034001;28;20377;-70
2022/09/04 06:46:03;;;;;;;4.63;2.45;;;17.60;99.90;;;;;;5035134;28;20022;-70
2022/09/04 06:49:02;;;;;;;3.55;2.75;;;17.60;99.90;;;;;;5035130;28;20043;-70
2022/09/04 06:51:47;;;;;;;;;;;17.60;99.90;;;;;;5035210;28;20448;-70
2022/09/04 06:54:28;;;;;;;3.40;2.38;;;17.70;99.90;;;;;;5034780;28;19912;-69
2022/09/04 06:57:17;;;;;;;3.65;2.53;;;17.80;99.90;;;;;;5034946;28;20079;-69
2022/09/04 07:00:01;;;;;;;2.70;2.40;;;17.80;99.90;;;;;;5034913;28;20073;-70
2022/09/04 07:02:39;;;;;;;3.57;1.83;;;18.40;99.90;;;;;;4995243;28;1131906;-69
2022/09/04 07:05:27;;;;;;;3.88;1.58;;;19.30;99.90;;;;;;5035531;28;20264;-64
2022/09/04 07:08:36;;;;;;;1.15;1.15;;;20.10;99.90;;;;;;5023713;28;20048;-70
2022/09/04 07:11:17;;;;;;;1.25;0.90;;;20.70;99.90;;;;;;5031519;28;20045;-71
2022/09/04 07:14:15;;;;;;;1.63;1.30;;;21.30;99.90;;;;;;5035434;28;20029;-72
2022/09/04 07:16:53;;;;;;;;;;;21.90;99.90;;;;;;5035894;28;20024;-70
2022/09/04 07:19:52;;;;;;;1.33;1.23;;;22.50;99.90;;;;;;5034195;28;19971;-68
2022/09/04 07:22:36;;;;;;;0.80;0.80;;;23.00;99.90;;;;;;5035569;28;20025;-72
2022/09/04 07:25:16;;;;;;;1.10;1.00;;;23.30;99.90;;;;;;5034345;28;20028;-68
2022/09/04 07:27:54;;;;;;;0.60;0.60;;;23.50;99.90;;;;;;5050864;28;20022;-74
2022/09/04 07:30:24;;;;;;;;;;;23.80;99.90;;;;;;5035870;28;20508;-72
2022/09/04 07:32:54;;;;;;;0.63;0.60;;;24.10;99.90;;;;;;5034233;28;19913;-68
2022/09/04 07:35:41;;;;;;;1.27;0.80;;;24.20;99.90;;;;;;5034751;28;20073;-70
2022/09/04 07:38:13;;;;;;;1.10;0.40;;;24.60;99.90;;;;;;5034940;28;20108;-70
2022/09/04 07:40:43;;;;;;;1.10;0.75;;;24.80;99.90;;;;;;5034531;28;20044;-70
2022/09/04 07:43:20;;;;;;;1.92;0.50;;;25.20;99.90;;;;;;5034894;28;20053;-70
2022/09/04 07:45:53;;;;;;;0.85;0.47;;;25.10;99.90;;;;;;5034881;28;20029;-70
2022/09/04 07:48:36;;;;;;;2.25;0.60;;;25.30;99.90;;;;;;5034512;28;20451;-62
2022/09/04 07:51:09;;;;;;;0.40;0.40;;;25.60;99.90;;;;;;5034734;28;20031;-63
2022/09/04 07:53:43;;;;;;;0.50;0.50;;;26.00;98.80;;;;;;5050154;28;20080;-64
2022/09/04 07:56:41;;;;;;;0.55;0.50;;;25.90;98.50;;;;;;5034686;28;20495;-62
2022/09/04 07:59:26;;;;;;;0.43;0.43;;;25.80;97.70;;;;;;5034436;28;20037;-64
2022/09/04 08:01:51;;;;;;;0.40;0.40;;;25.40;98.40;;;;;;5034429;28;20029;-63
2022/09/04 08:04:57;;;;;;;0.95;0.60;;;25.50;98.40;;;;;;5034543;28;20032;-65
2022/09/04 08:07:32;;;;;;;0.60;0.60;;;25.80;97.30;;;;;;5033483;28;20030;-65
2022/09/04 08:10:39;;;;;;;4.20;0.75;;;25.70;97.30;;;;;;5034161;28;20135;-64
2022/09/04 08:13:33;;;;;;;0.68;0.68;;;25.20;98.00;;;;;;5033104;28;20489;-65
2022/09/04 08:16:27;;;;;;;0.60;0.60;;;24.80;99.10;;;;;;5026040;28;20470;-65
2022/09/04 08:19:30;;;;;;;0.50;0.50;;;24.20;99.90;;;;;;5032930;28;20048;-65
2022/09/04 08:21:57;;;;;;;0.50;0.50;;;23.80;99.90;;;;;;5034311;28;20037;-65
2022/09/04 08:25:00;;;;;;;0.70;0.70;;;23.80;99.90;;;;;;5034173;28;20026;-65
2022/09/04 08:27:46;;;;;;;0.50;0.50;;;23.80;99.90;;;;;;5066267;28;20057;-65
2022/09/04 08:30:15;;;;;;;1.05;0.65;;;23.80;99.90;;;;;;5034181;28;20028;-66
2022/09/04 08:33:03;;;;;;;0.70;0.70;;;23.50;99.90;;;;;;5034081;28;20041;-67
2022/09/04 08:35:34;;;;;;;0.50;0.50;;;23.40;99.90;;;;;;5034281;28;20041;-68
2022/09/04 08:38:18;;;;;;;1.20;0.50;;;23.50;99.90;;;;;;5034146;28;20025;-62
2022/09/04 08:40:46;;;;;;;0.40;0.40;;;23.50;99.90;;;;;;5033638;28;20362;-63
2022/09/04 08:43:23;;;;;;;0.50;0.50;;;23.60;99.90;;;;;;5033505;28;20075;-64
2022/09/04 08:46:31;;;;;;;0.50;0.40;;;23.60;99.90;;;;;;5034466;28;20470;-65
2022/09/04 08:49:18;;;;;;;1.02;0.70;;;23.60;99.90;;;;;;5023610;28;20029;-64
2022/09/04 08:52:17;;;;;;;0.60;0.60;;;23.40;99.90;;;;;;5033740;28;20033;-63
2022/09/04 08:55:19;;;;;;;0.57;0.57;;;23.20;99.90;;;;;;5032893;28;20049;-63
2022/09/04 08:58:06;;;;;;;0.68;0.68;;;23.20;99.90;;;;;;5033745;28;20032;-68
2022/09/04 09:00:50;;;;;;;0.63;0.63;;;23.30;99.90;;;;;;5033388;28;20532;-68
2022/09/04 09:03:48;;;;;;;0.63;0.63;;;23.40;99.90;;;;;;5033679;28;20045;-68
2022/09/04 09:06:14;;;;;;;;;;;23.50;99.90;;;;;;5033908;28;20397;-69
2022/09/04 09:09:01;;;;;;;1.15;0.77;;;23.50;99.90;;;;;;5033741;28;19912;-69
2022/09/04 09:12:01;;;;;;;0.47;0.40;;;23.40;99.90;;;;;;5033159;28;20041;-69
2022/09/04 09:14:48;;;;;;;0.75;0.63;;;23.40;99.90;;;;;;5032320;28;20040;-69
2022/09/04 09:17:39;;;;;;;2.22;0.63;;;23.50;99.90;;;;;;5033250;28;20039;-66
2022/09/04 09:20:23;;;;;;;1.52;0.60;;;23.60;99.90;;;;;;5049083;28;20036;-67
2022/09/04 09:23:14;;;;;;;0.55;0.45;;;23.70;99.90;;;;;;5033243;28;20033;-66
2022/09/04 09:25:48;;;;;;;1.65;0.40;;;23.80;99.90;;;;;;5032196;28;20030;-66
2022/09/04 09:28:35;;;;;;;1.85;0.52;;;24.00;99.90;;;;;;5032170;28;20026;-66
2022/09/04 09:31:25;;;;;;;1.30;0.52;;;24.20;99.90;;;;;;5033447;28;20163;-66
2022/09/04 09:34:04;;;;;;;1.92;1.83;;;24.40;99.90;;;;;;5033862;28;20057;-66
2022/09/04 09:36:43;;;;;;;1.70;1.17;;;24.70;99.90;;;;;;5033448;28;20025;-66
2022/09/04 09:39:37;;;;;;;1.30;1.20;;;24.70;99.90;;;;;;5033335;28;20136;-69
2022/09/04 09:42:40;;;;;;;1.13;0.55;;;25.00;98.80;;;;;;5033307;28;20075;-68
2022/09/04 09:45:35;;;;;;;0.52;0.32;;;25.00;98.60;;;;;;5033226;28;20034;-69
2022/09/04 09:48:38;;;;;;;0.30;0.30;;;25.20;97.20;;;;;;5032014;28;20032;-69
2022/09/04 09:51:22;;;;;;;0.28;0.28;;;25.60;97.20;;;;;;5031853;28;20030;-69
2022/09/04 09:54:42;;;;;;;1.33;0.45;;;25.90;95.20;;;;;;5033255;28;20411;-69
2022/09/04 09:57:19;;;;;;;0.20;0.20;;;25.80;94.10;;;;;;5014686;28;20123;-69
2022/09/04 10:00:16;;;;;;;0.20;0.20;;;25.80;94.30;;;;;;5034112;28;20042;-69
2022/09/04 10:03:06;;;;;;;0.22;0.20;;;25.80;94.00;;;;;;5032047;28;20132;-69
2022/09/04 10:05:38;;;;;;;1.75;0.30;;;25.70;93.20;;;;;;5036757;28;20026;-69
2022/09/04 10:08:03;;;;;;;3.88;0.20;;;25.70;93.50;;;;;;5036702;28;20021;-69
2022/09/04 10:10:29;;;;;;;0.75;0.20;;;25.70;92.90;;;;;;5036708;28;20021;-69
2022/09/04 10:12:58;;;;;;;0.65;0.30;;;25.60;92.60;;;;;;5036507;28;20037;-69
2022/09/04 10:16:02;;;;;;;0.38;0.20;;;25.40;93.50;;;;;;5035187;28;20076;-70
2022/09/04 10:18:55;;;;;;;0.40;0.20;;;25.90;92.70;;;;;;5033649;28;20497;-69
2022/09/04 10:21:55;;;;;;;0.20;0.20;;;26.40;91.20;;;;;;5035154;28;20485;-70
2022/09/04 10:24:37;;;;;;;1.55;0.22;;;26.80;90.10;;;;;;5034983;28;20040;-69
2022/09/04 10:27:27;;;;;;;1.30;0.47;;;27.10;90.10;;;;;;5036508;28;20075;-69
2022/09/04 10:30:34;;;;;;;0.15;0.15;;;27.10;86.90;;;;;;5035999;28;20073;-69
2022/09/04 10:33:30;;;;;;;1.35;0.32;;;26.80;88.40;;;;;;5051235;28;20083;-69
2022/09/04 10:36:03;;;;;;;1.52;0.30;;;26.40;87.60;;;;;;5051431;28;20039;-67
2022/09/04 10:42:04;;;;;;;0.30;0.30;;;25.70;89.30;;;;;;5036260;28;20414;-65
2022/09/04 10:44:35;;;;;;;0.20;0.20;;;25.10;90.70;;;;;;5036140;28;20033;-65
2022/09/04 10:47:29;;;;;;;0.63;0.20;;;24.80;91.00;;;;;;5036365;28;20167;-65
2022/09/04 10:50:26;;;;;;;0.30;0.30;;;24.60;91.80;;;;;;5035582;28;20036;-66
2022/09/04 10:53:40;;;;;;;0.20;0.20;;;24.80;92.70;;;;;;5035788;28;20041;-65
2022/09/04 10:56:18;;;;;;;1.05;0.20;;;24.90;92.40;;;;;;5013625;28;20064;-65
2022/09/04 10:58:46;;;;;;;0.20;0.20;;;25.00;92.20;;;;;;5029694;28;20036;-66
2022/09/04 11:01:37;;;;;;;0.30;0.30;;;25.00;92.50;;;;;;5035760;28;20037;-65
2022/09/04 11:04:21;;;;;;;0.40;0.40;;;25.30;91.60;;;;;;5033789;28;20045;-65
2022/09/04 11:07:21;;;;;;;1.27;0.10;;;25.20;91.60;;;;;;5034582;28;20104;-66
2022/09/04 11:10:06;;;;;;;1.58;0.30;;;25.50;91.40;;;;;;5035670;28;20373;-66
2022/09/04 11:13:02;;;;;;;0.25;0.20;;;25.80;91.10;;;;;;5035111;28;20036;-66
2022/09/04 11:15:57;;;;;;;0.30;0.30;;;25.80;90.40;;;;;;5034263;28;20537;-68
2022/09/04 11:18:44;;;;;;;0.28;0.28;;;26.20;90.20;;;;;;5029529;28;20038;-67
2022/09/04 11:21:43;;;;;;;0.40;0.40;;;26.50;89.40;;;;;;5035667;28;20041;-67
2022/09/04 11:24:24;;;;;;;0.40;0.30;;;26.90;88.40;;;;;;5035358;28;20029;-66
2022/09/04 11:27:19;;;;;;;0.35;0.35;;;27.20;86.90;;;;;;5035316;28;20109;-66
2022/09/04 11:30:02;;;;;;;0.20;0.20;;;27.50;86.10;;;;;;5033982;28;20127;-67
2022/09/04 11:32:34;;;;;;;0.65;0.30;;;28.00;84.30;;;;;;5034604;28;20362;-67
2022/09/04 11:35:05;;;;;;;0.75;0.22;;;28.20;82.00;;;;;;5040089;28;20033;-67
2022/09/04 11:37:40;;;;;;;0.38;0.20;;;27.50;82.50;;;;;;5039812;28;20503;-67
2022/09/04 11:40:27;;;;;;;0.57;0.30;;;27.60;83.30;;;;;;5040546;28;20029;-65
2022/09/04 11:43:14;;;;;;;0.55;0.30;;;27.80;82.10;;;;;;5037950;28;20104;-67
2022/09/04 11:46:17;;;;;;;0.65;0.22;;;28.50;81.00;;;;;;5035233;28;20037;-67
2022/09/04 11:49:39;;;;;;;1.40;0.30;;;29.00;77.00;;;;;;5035179;28;20064;-68
2022/09/04 11:52:33;;;;;;;0.30;0.30;;;28.30;74.70;;;;;;5012357;28;20033;-67
2022/09/04 11:55:11;;;;;;;0.68;0.35;;;27.40;76.80;;;;;;5049804;28;20033;-59
2022/09/04 11:57:41;;;;;;;0.20;0.20;;;27.30;78.30;;;;;;5034664;28;20029;-59
2022/09/04 12:00:16;;;;;;;0.22;0.20;;;27.20;78.80;;;;;;5034624;28;20064;-59
2022/09/04 12:03:07;;;;;;;1.02;0.35;;;27.40;79.10;;;;;;5034614;28;20057;-59
2022/09/04 12:05:54;;;;;;;0.35;0.20;;;27.30;76.00;;;;;;5034695;28;20385;-59
2022/09/04 12:08:29;;;;;;;0.20;0.20;;;27.10;76.80;;;;;;5034138;28;20527;-59
2022/09/04 12:11:03;;;;;;;0.52;0.20;;;27.00;78.90;;;;;;5034362;28;20029;-59
2022/09/04 12:13:28;;;;;;;0.40;0.40;;;27.00;80.30;;;;;;5034419;28;20033;-58
2022/09/04 12:16:20;;;;;;;0.20;0.20;;;27.10;79.30;;;;;;5034032;28;20032;-59
2022/09/04 12:19:09;;;;;;;1.77;0.28;;;27.20;79.20;;;;;;5025730;28;20478;-59
2022/09/04 12:21:39;;;;;;;;;;;27.30;78.80;;;;;;5034721;28;20033;-59
2022/09/04 12:24:29;;;;;;;0.40;0.38;;;27.50;77.90;;;;;;5034014;28;19905;-59
2022/09/04 12:27:14;;;;;;;0.32;0.30;;;27.40;77.10;;;;;;5032672;28;20025;-59
2022/09/04 12:30:17;;;;;;;0.30;0.30;;;27.20;77.10;;;;;;5034045;28;20485;-59
2022/09/04 12:32:43;;;;;;;0.43;0.30;;;27.30;77.30;;;;;;5022501;28;20143;-59
2022/09/04 12:35:25;;;;;;;0.28;0.13;;;27.50;77.70;;;;;;5033991;28;20418;-59
2022/09/04 12:38:12;;;;;;;0.65;0.40;;;27.50;77.20;;;;;;5034308;28;20034;-59
2022/09/04 12:40:53;;;;;;;0.63;0.17;;;27.80;77.60;;;;;;5033631;28;20026;-60
2022/09/04 12:43:40;;;;;;;1.95;0.45;;;27.90;75.80;;;;;;5034494;28;20112;-59
2022/09/04 12:46:59;;;;;;;0.55;0.45;;;27.90;76.30;;;;;;5033795;28;20022;-60
2022/09/04 12:49:40;;;;;;;0.60;0.60;;;27.60;76.70;;;;;;5011720;28;20088;-59
2022/09/04 12:52:30;;;;;;;0.45;0.45;;;27.50;76.40;;;;;;5033312;28;20057;-59
2022/09/04 12:55:29;;;;;;;1.55;0.50;;;27.40;76.40;;;;;;5033941;28;20167;-58
2022/09/04 12:58:03;;;;;;;0.30;0.30;;;27.30;77.40;;;;;;5033464;28;20025;-60
2022/09/04 13:00:40;;;;;;;0.93;0.43;;;27.40;77.30;;;;;;5034373;28;20029;-61
2022/09/04 13:03:26;;;;;;;0.30;0.30;;;27.80;78.10;;;;;;5033662;28;20057;-61
2022/09/04 13:06:12;;;;;;;0.73;0.55;;;28.30;75.90;;;;;;5033403;28;20428;-61
2022/09/04 13:08:46;;;;;;;54.65;3.58;;;28.90;74.30;;;;;;5033796;28;20033;-61
2022/09/04 13:11:21;;;;;;;1.42;0.28;;;29.70;72.20;;;;;;5032364;28;20029;-61
2022/09/04 13:14:08;;;;;;;0.40;0.30;;;30.20;71.10;;;;;;5033447;28;20406;-61
2022/09/04 13:16:53;;;;;;;0.50;0.50;;;30.20;69.80;;;;;;5033812;28;20033;-60
2022/09/04 13:19:38;;;;;;;0.50;0.50;;;29.60;70.50;;;;;;5033801;28;20470;-59
2022/09/04 13:22:19;;;;;;;0.50;0.50;;;29.50;71.40;;;;;;5033878;28;20037;-59
2022/09/04 13:25:12;;;;;;;1.23;0.50;;;29.30;71.10;;;;;;5033375;28;20021;-59
2022/09/04 13:28:05;;;;;;;0.50;0.50;;;29.00;71.20;;;;;;5033748;28;20032;-63
2022/09/04 13:30:33;;;;;;;1.50;0.50;;;28.10;73.20;;;;;;5035018;28;20029;-58
2022/09/04 13:33:05;;;;;;;0.40;0.40;;;27.70;74.30;;;;;;5037594;28;20026;-61
2022/09/04 13:35:46;;;;;;;1.85;0.32;;;27.30;76.70;;;;;;5037417;28;20032;-61
2022/09/04 13:38:37;;;;;;;0.30;0.30;;;27.40;76.20;;;;;;5037382;28;20076;-61
2022/09/04 13:41:08;;;;;;;1.48;0.63;;;27.50;74.40;;;;;;5037226;28;20022;-60
2022/09/04 13:43:37;;;;;;;0.57;0.55;;;28.00;72.90;;;;;;5035978;28;20362;-76
2022/09/04 13:46:10;;;;;;;0.68;0.40;;;28.50;72.50;;;;;;5037336;28;20029;-76
2022/09/04 13:49:02;;;;;;;1.48;0.65;;;28.90;69.60;;;;;;5052196;28;20030;-76
2022/09/04 13:51:42;;;;;;;0.47;0.47;;;29.10;69.30;;;;;;5036923;28;20405;-75
2022/09/04 13:54:16;;;;;;;0.65;0.52;;;29.10;69.20;;;;;;5036969;28;20029;-74
2022/09/04 13:56:59;;;;;;;3.38;1.33;;;29.00;70.70;;;;;;5035760;28;20030;-78
2022/09/04 13:59:25;;;;;;;3.72;1.23;;;28.50;74.00;;;;;;5037078;28;20025;-78
2022/09/04 14:01:54;;;;;;;1.40;1.30;;;29.00;74.90;;;;;;5035361;28;20053;-77
2022/09/04 14:04:34;;;;;;;1.38;1.27;;;29.20;75.20;;;;;;5036868;28;20485;-77
2022/09/04 14:07:07;;;;;;;1.25;1.13;;;29.70;73.50;;;;;;5037027;28;20033;-78
2022/09/04 14:09:41;;;;;;;1.85;1.65;;;29.60;72.80;;;;;;5036368;28;20061;-77
2022/09/04 14:12:20;;;;;;;2.45;2.03;;;29.10;72.90;;;;;;5036859;28;20034;-77
2022/09/04 14:15:13;;;;;;;2.28;1.73;;;28.60;74.60;;;;;;5035314;28;20036;-77
2022/09/04 14:17:49;;;;;;;2.70;1.80;;;28.30;75.90;;;;;;5036277;28;20025;-76
2022/09/04 14:20:19;;;;;;;1.60;1.50;;;28.40;75.70;;;;;;5036618;28;20033;-77
2022/09/04 14:23:11;;;;;;;1.60;1.50;;;28.60;75.10;;;;;;5036683;28;20076;-76
2022/09/04 14:26:02;;;;;;;2.08;1.52;;;29.40;73.80;;;;;;5036445;28;20434;-77